Time;durP1;ratioP1;P1;durP2;ratioP2;P2;SDS_P1;SDS_P2;PMS_P1;PMS_P2;Temp;Humidity;BMP_temperature;BMP_pressure;BME280_temperature;BME280_humidity;BME280_pressure;Samples;Min_cycle;Max_cycle;Signal;HPM_P1;HPM_P2
2022/03/09 00:00:06;;;;;;;;;75.67;55.00;;;;;6.66;100.00;101527.63;5077821;27;45438;-83
2022/03/09 00:02:32;;;;;;;;;73.67;53.33;;;;;6.64;100.00;101521.56;5077629;27;45496;-84
2022/03/09 00:04:57;;;;;;;;;70.00;51.00;;;;;6.60;100.00;101526.09;5077961;27;45363;-82
2022/03/09 00:07:23;;;;;;;;;67.00;52.33;;;;;6.56;100.00;101521.84;5080266;27;45461;-83
2022/03/09 00:09:49;;;;;;;;;76.00;55.67;;;;;6.51;100.00;101523.78;5084208;27;44844;-82
2022/03/09 00:12:14;;;;;;;;;71.67;53.00;;;;;6.47;100.00;101529.22;5080874;27;45457;-83
2022/03/09 00:14:40;;;;;;;;;71.00;52.67;;;;;6.40;100.00;101532.09;5078652;27;44866;-83
2022/03/09 00:17:05;;;;;;;;;71.33;51.33;;;;;6.36;100.00;101534.91;5077532;27;45373;-81
2022/03/09 00:19:31;;;;;;;;;66.67;52.67;;;;;6.31;100.00;101521.03;5077140;27;45304;-82
2022/03/09 00:21:56;;;;;;;;;68.67;53.00;;;;;6.29;100.00;101530.78;5077112;27;45398;-82
2022/03/09 00:24:21;;;;;;;;;63.00;52.00;;;;;6.26;100.00;101528.25;5077323;27;45256;-82
2022/03/09 00:26:47;;;;;;;;;77.67;56.67;;;;;6.23;100.00;101525.72;5077047;27;45026;-81
2022/03/09 00:29:13;;;;;;;;;74.33;53.00;;;;;6.20;100.00;101523.22;5077118;27;45565;-81
2022/03/09 00:31:38;;;;;;;;;73.33;54.67;;;;;6.17;100.00;101530.28;5076246;27;45328;-82
2022/03/09 00:34:03;;;;;;;;;72.00;54.33;;;;;6.14;100.00;101535.69;5077167;27;45644;-83
2022/03/09 00:36:29;;;;;;;;;79.00;56.33;;;;;6.11;100.00;101541.06;5076586;27;45183;-83
2022/03/09 00:38:56;;;;;;;;;73.00;52.00;;;;;6.08;100.00;101541.16;5077785;27;45424;-81
2022/03/09 00:41:21;;;;;;;;;71.67;55.33;;;;;6.07;100.00;101546.50;5078885;27;45218;-82
2022/03/09 00:43:47;;;;;;;;;75.00;57.33;;;;;6.06;100.00;101544.78;5078401;27;44866;-82
2022/03/09 00:46:12;;;;;;;;;68.33;54.67;;;;;6.02;100.00;101541.41;5078904;27;46221;-82
2022/03/09 00:48:38;;;;;;;;;77.67;55.67;;;;;6.02;100.00;101541.41;5079646;27;45448;-82
2022/03/09 00:51:04;;;;;;;;;70.33;55.33;;;;;6.01;100.00;101552.88;5078530;27;45368;-81
2022/03/09 00:53:29;;;;;;;;;72.00;55.33;;;;;5.99;100.00;101554.69;5076936;27;44947;-82
2022/03/09 00:55:54;;;;;;;;;69.67;52.33;;;;;6.00;100.00;101559.06;5076748;27;46893;-82
2022/03/09 00:58:20;;;;;;;;;65.67;45.67;;;;;5.99;100.00;101562.59;5077744;27;44816;-81
2022/03/09 01:00:45;;;;;;;;;73.33;56.33;;;;;5.98;100.00;101558.25;5078036;27;45871;-84
2022/03/09 01:03:10;;;;;;;;;75.33;56.67;;;;;5.97;100.00;101564.44;5077471;27;44804;-83
2022/03/09 01:05:36;;;;;;;;;71.33;55.33;;;;;5.95;100.00;101566.28;5077657;27;45322;-82
2022/03/09 01:08:01;;;;;;;;;77.33;56.00;;;;;5.97;100.00;101556.53;5077523;27;45310;-83
2022/03/09 01:10:27;;;;;;;;;79.50;58.00;;;;;5.99;100.00;101554.69;5076889;27;45716;-81
2022/03/09 01:12:52;;;;;;;;;70.33;53.00;;;;;6.03;100.00;101550.16;5077903;27;45426;-81
2022/03/09 01:15:18;;;;;;;;;79.33;63.00;;;;;6.04;100.00;101555.38;5079909;27;46160;-82
2022/03/09 01:17:43;;;;;;;;;77.33;55.67;;;;;6.06;100.00;101561.47;5081107;27;44741;-81
2022/03/09 01:20:10;;;;;;;;;72.33;55.33;;;;;6.05;100.00;101561.53;5077000;27;45427;-82
2022/03/09 01:22:35;;;;;;;;;79.33;58.00;;;;;6.03;100.00;101568.63;5075173;27;45411;-81
2022/03/09 01:25:01;;;;;;;;;75.00;56.00;;;;;5.97;100.00;101566.22;5076243;27;45352;-82
2022/03/09 01:27:26;;;;;;;;;75.33;55.00;;;;;5.91;100.00;101568.16;5076340;27;44758;-81
2022/03/09 01:29:51;;;;;;;;;72.33;55.33;;;;;5.85;100.00;101565.69;5075263;27;45537;-83
2022/03/09 01:32:17;;;;;;;;;75.75;56.50;;;;;5.82;100.00;101568.44;5076739;27;45535;-82
2022/03/09 01:34:43;;;;;;;;;71.33;56.67;;;;;5.79;100.00;101568.53;5079809;27;45008;-82
2022/03/09 01:37:08;;;;;;;;;76.33;57.00;;;;;5.77;100.00;101574.78;5079805;27;45308;-82
2022/03/09 01:39:34;;;;;;;;;79.33;58.00;;;;;5.77;100.00;101561.59;5081075;27;44792;-82
2022/03/09 01:41:59;;;;;;;;;81.67;58.00;;;;;5.77;100.00;101567.72;5079191;27;44864;-81
2022/03/09 01:44:25;;;;;;;;;76.00;58.33;;;;;5.79;100.00;101557.13;5078047;27;45352;-81
2022/03/09 01:46:53;;;;;;;;;77.67;57.33;;;;;5.81;100.00;101563.22;5081609;27;45480;-82
2022/03/09 01:49:19;;;;;;;;;79.00;58.00;;;;;5.82;100.00;101562.28;5079773;27;44747;-81
2022/03/09 01:51:47;;;;;;;;;78.00;56.67;;;;;5.81;100.00;101552.66;5076921;27;45307;-83
2022/03/09 01:54:14;;;;;;;;;72.33;56.33;;;;;5.81;100.00;101556.16;5076059;27;45594;-82
2022/03/09 01:56:42;;;;;;;;;77.67;55.00;;;;;5.82;100.00;101557.03;5076043;27;44795;-82
2022/03/09 01:59:10;;;;;;;;;80.33;59.00;;;;;5.77;100.00;101556.31;5075908;27;44857;-82
2022/03/09 02:01:36;;;;;;;;;75.00;57.50;;;;;5.73;100.00;101552.91;5075816;27;44811;-83
2022/03/09 02:04:04;;;;;;;;;82.00;59.00;;;;;5.70;100.00;101560.91;5075763;27;46291;-82
2022/03/09 02:06:32;;;;;;;;;80.67;60.67;;;;;5.64;100.00;101551.44;5075841;27;45442;-82
2022/03/09 02:11:42;;;;;;;;;77.67;58.67;;;;;5.52;100.00;101546.59;5075726;28;44892;-83
2022/03/09 02:14:25;;;;;;;;;67.67;54.33;;;;;5.49;100.00;101551.09;5075926;27;45430;-82
2022/03/09 02:16:50;;;;;;;;;78.33;58.00;;;;;5.46;100.00;101548.53;5075249;27;45566;-82
2022/03/09 02:19:16;;;;;;;;;75.33;59.67;;;;;5.44;100.00;101543.34;5076133;27;45206;-81
2022/03/09 02:21:44;;;;;;;;;78.33;59.00;;;;;5.44;100.00;101545.13;5076641;27;45497;-80
2022/03/09 02:24:09;;;;;;;;;82.33;61.33;;;;;5.45;100.00;101538.94;5077878;27;45339;-81
2022/03/09 02:26:35;;;;;;;;;82.33;58.67;;;;;5.41;100.00;101536.41;5078298;27;44793;-81
2022/03/09 02:29:01;;;;;;;;;78.00;57.67;;;;;5.38;100.00;101536.50;5079051;27;45298;-83
2022/03/09 02:31:26;;;;;;;;;75.00;55.67;;;;;5.36;100.00;101540.94;5079549;27;44791;-80
2022/03/09 02:33:51;;;;;;;;;75.00;58.00;;;;;5.34;100.00;101539.28;5077378;27;45047;-82
2022/03/09 02:36:20;;;;;;;;;81.33;60.00;;;;;5.33;100.00;101550.75;5075047;27;45384;-82
2022/03/09 02:38:45;;;;;;;;;82.33;60.33;;;;;5.27;100.00;101550.91;5075606;27;44645;-81
2022/03/09 02:41:11;;;;;;;;;84.33;61.00;;;;;5.23;100.00;101542.28;5075541;27;45334;-82
2022/03/09 02:43:36;;;;;;;;;81.50;59.00;;;;;5.20;100.00;101539.72;5074055;28;45029;-83
2022/03/09 02:46:02;;;;;;;;;78.67;60.00;;;;;5.19;100.00;101539.78;5075247;27;45339;-81
2022/03/09 02:48:27;;;;;;;;;76.67;56.00;;;;;5.20;100.00;101538.84;5073748;27;45422;-81
2022/03/09 02:50:53;;;;;;;;;78.50;59.25;;;;;5.21;100.00;101553.75;5075066;27;45420;-82
2022/03/09 02:53:18;;;;;;;;;82.50;61.50;;;;;5.19;100.00;101548.53;5075265;27;45002;-82
2022/03/09 02:55:44;;;;;;;;;79.50;58.75;;;;;5.17;100.00;101552.97;5078497;27;45022;-82
2022/03/09 02:58:09;;;;;;;;;84.00;67.00;;;;;5.16;100.00;101562.66;5080205;27;45449;-82
2022/03/09 03:00:35;;;;;;;;;78.00;59.50;;;;;5.15;100.00;101560.94;5080432;27;44843;-83
2022/03/09 03:03:00;;;;;;;;;78.50;58.50;;;;;5.12;100.00;101568.06;5078728;27;44922;-82
2022/03/09 03:05:25;;;;;;;;;85.25;64.00;;;;;5.08;100.00;101574.34;5079169;27;45333;-83
2022/03/09 03:07:51;;;;;;;;;80.50;59.50;;;;;5.01;100.00;101578.94;5078775;27;45320;-81
2022/03/09 03:10:16;;;;;;;;;79.75;61.50;;;;;4.98;100.00;101568.50;5078751;27;45436;-82
2022/03/09 03:12:42;;;;;;;;;86.75;63.25;;;;;4.96;100.00;101572.09;5078717;27;45300;-81
2022/03/09 03:15:07;;;;;;;;;83.75;60.75;;;;;4.93;100.00;101578.28;5078528;27;45543;-82
2022/03/09 03:17:37;;;;;;;;;81.50;60.50;;;;;4.89;100.00;101577.53;5078459;27;44780;-82
2022/03/09 03:20:04;;;;;;;;;87.00;65.00;;;;;4.88;100.00;101570.56;5078646;27;44810;-80
2022/03/09 03:22:30;;;;;;;;;87.75;65.50;;;;;4.87;100.00;101575.84;5078304;27;45463;-81
2022/03/09 03:24:55;;;;;;;;;78.00;60.50;;;;;4.86;100.00;101574.13;5079094;27;44951;-81
2022/03/09 03:27:21;;;;;;;;;81.50;65.75;;;;;4.84;100.00;101570.69;5079725;27;45371;-82
2022/03/09 03:29:46;;;;;;;;;80.25;62.00;;;;;4.82;100.00;101569.84;5077775;27;45615;-83
2022/03/09 03:32:12;;;;;;;;;86.25;66.00;;;;;4.80;100.00;101566.41;5078991;27;45421;-81
2022/03/09 03:34:37;;;;;;;;;81.00;60.25;;;;;4.79;100.00;101562.94;5078145;28;45419;-82
2022/03/09 03:37:03;;;;;;;;;79.50;61.00;;;;;4.80;100.00;101551.47;5080331;28;44782;-82
2022/03/09 03:39:28;;;;;;;;;83.75;62.25;;;;;4.81;100.00;101555.84;5078588;27;45427;-81
2022/03/09 03:41:54;;;;;;;;;83.00;60.75;;;;;4.81;100.00;101563.72;5078304;27;45295;-85
2022/03/09 03:44:19;;;;;;;;;78.25;60.50;;;;;4.80;100.00;101562.00;5078163;27;45358;-82
2022/03/09 03:46:45;;;;;;;;;79.75;61.50;;;;;4.79;100.00;101562.94;5077823;27;45163;-82
2022/03/09 03:49:10;;;;;;;;;83.00;62.00;;;;;4.79;100.00;101557.66;5078255;27;44832;-84
2022/03/09 03:51:35;;;;;;;;;83.25;62.25;;;;;4.79;100.00;101565.56;5076904;27;45060;-83
2022/03/09 03:54:01;;;;;;;;;86.75;68.50;;;;;4.76;100.00;101565.63;5062624;27;45446;-82
2022/03/09 03:56:26;;;;;;;;;83.75;63.25;;;;;4.75;100.00;101573.59;5058061;28;45300;-84
2022/03/09 03:58:52;;;;;;;;;78.00;57.50;;;;;4.70;100.00;101572.88;5057240;28;44840;-84
2022/03/09 04:01:17;;;;;;;;;86.00;67.00;;;;;4.66;100.00;101571.22;5057565;28;45384;-83
2022/03/09 04:03:42;;;;;;;;;82.75;63.00;;;;;4.65;100.00;101580.91;5056252;28;44863;-82
2022/03/09 04:06:08;;;;;;;;;83.00;64.75;;;;;4.62;100.00;101576.56;5056897;28;45430;-82
2022/03/09 04:08:33;;;;;;;;;91.00;65.75;;;;;4.60;100.00;101577.53;5058704;28;45322;-82
2022/03/09 04:10:59;;;;;;;;;83.50;62.75;;;;;4.57;100.00;101577.59;5060611;28;45512;-81
2022/03/09 04:13:24;;;;;;;;;83.75;69.25;;;;;4.54;100.00;101578.53;5058709;28;44750;-83
2022/03/09 04:15:49;;;;;;;;;87.00;64.25;;;;;4.52;100.00;101577.75;5057621;28;45346;-83
2022/03/09 04:18:15;;;;;;;;;83.25;64.00;;;;;4.51;100.00;101577.78;5063965;28;44824;-83
2022/03/09 04:20:40;;;;;;;;;91.50;64.50;;;;;4.48;100.00;101581.34;5064429;28;45435;-82
2022/03/09 04:23:10;;;;;;;;;85.25;61.25;;;;;4.50;100.00;101581.34;5058010;28;44707;-83
2022/03/09 04:25:37;;;;;;;;;84.25;63.50;;;;;4.49;100.00;101584.84;5057860;28;45315;-83
2022/03/09 04:28:03;;;;;;;;;84.50;62.25;;;;;4.47;100.00;101578.78;5056960;28;45547;-83
2022/03/09 04:30:29;;;;;;;;;85.50;63.75;;;;;4.46;100.00;101577.91;5056982;28;45143;-83
2022/03/09 04:32:55;;;;;;;;;80.00;61.50;;;;;4.45;100.00;101580.56;5056986;28;44824;-83
2022/03/09 04:35:21;;;;;;;;;79.25;59.50;;;;;4.45;100.00;101572.69;5057199;28;45340;-83
2022/03/09 04:37:46;;;;;;;;;77.00;59.75;;;;;4.46;100.00;101580.53;5057130;27;45301;-83
2022/03/09 04:40:12;;;;;;;;;78.00;59.00;;;;;4.47;100.00;101584.03;5055553;28;45052;-83
2022/03/09 04:42:37;;;;;;;;;82.00;59.50;;;;;4.46;100.00;101585.81;5055671;28;45186;-83
2022/03/09 04:45:04;;;;;;;;;77.25;60.75;;;;;4.45;100.00;101580.56;5057935;28;44812;-82
2022/03/09 04:47:30;;;;;;;;;76.75;60.50;;;;;4.44;100.00;101589.38;5057955;28;45086;-84
2022/03/09 04:49:55;;;;;;;;;80.00;61.00;;;;;4.40;100.00;101586.00;5062155;28;45291;-84
2022/03/09 04:52:21;;;;;;;;;75.50;57.75;;;;;4.38;100.00;101593.03;5061637;27;45409;-83
2022/03/09 04:54:47;;;;;;;;;83.75;62.75;;;;;4.37;100.00;101597.44;5083382;27;44946;-83
2022/03/09 04:57:12;;;;;;;;;80.75;62.25;;;;;4.37;100.00;101594.81;5078950;27;45667;-84
2022/03/09 04:59:38;;;;;;;;;77.25;59.75;;;;;4.37;100.00;101599.22;5077228;27;46609;-83
2022/03/09 05:02:03;;;;;;;;;73.75;54.50;;;;;4.37;100.00;101605.34;5077939;27;44855;-83
2022/03/09 05:04:30;;;;;;;;;81.50;61.00;;;;;4.37;100.00;101604.47;5078414;27;46104;-83
2022/03/09 05:06:55;;;;;;;;;81.50;59.00;;;;;4.36;100.00;101595.72;5077732;27;44906;-82
2022/03/09 05:09:21;;;;;;;;;79.33;58.33;;;;;4.36;100.00;101608.03;5079395;27;45128;-84
2022/03/09 05:11:46;;;;;;;;;79.50;60.00;;;;;4.34;100.00;101610.66;5079904;27;45328;-83
2022/03/09 05:14:12;;;;;;;;;76.00;56.00;;;;;4.34;100.00;101610.66;5081334;27;44810;-82
2022/03/09 05:16:37;;;;;;;;;73.67;55.33;;;;;4.32;100.00;101622.16;5076595;27;45355;-85
2022/03/09 05:19:03;;;;;;;;;73.25;55.50;;;;;4.30;100.00;101616.06;5077403;28;45232;-83
2022/03/09 05:21:29;;;;;;;;;73.33;54.00;;;;;4.29;100.00;101619.59;5078863;27;45460;-84
2022/03/09 05:23:54;;;;;;;;;75.00;57.00;;;;;4.27;100.00;101622.28;5080359;27;44692;-84
2022/03/09 05:26:20;;;;;;;;;74.50;57.75;;;;;4.27;100.00;101631.94;5082300;27;45198;-82
2022/03/09 05:28:45;;;;;;;;;80.00;60.50;;;;;4.24;100.00;101634.63;5079050;27;45264;-84
2022/03/09 05:31:10;;;;;;;;;67.00;52.75;;;;;4.22;100.00;101636.44;5078586;27;44860;-82
2022/03/09 05:33:36;;;;;;;;;73.25;53.75;;;;;4.19;100.00;101628.63;5077214;27;45260;-83
2022/03/09 05:36:01;;;;;;;;;75.75;55.75;;;;;4.18;100.00;101626.91;5077391;27;44919;-82
2022/03/09 05:38:27;;;;;;;;;72.33;53.67;;;;;4.15;100.00;101637.50;5075134;27;45384;-84
2022/03/09 05:40:53;;;;;;;;;68.00;51.67;;;;;4.12;100.00;101635.81;5076103;27;44819;-84
2022/03/09 05:43:18;;;;;;;;;71.33;55.67;;;;;4.09;100.00;101635.88;5078082;27;44745;-84
2022/03/09 05:45:44;;;;;;;;;72.33;53.67;;;;;4.09;100.00;101639.38;5079971;27;45670;-83
2022/03/09 05:48:09;;;;;;;;;69.33;54.00;;;;;4.08;100.00;101648.19;5076192;27;45096;-84
2022/03/09 05:50:36;;;;;;;;;68.33;54.33;;;;;4.08;100.00;101655.22;5076531;27;45414;-83
2022/03/09 05:53:02;;;;;;;;;68.67;52.33;;;;;4.06;100.00;101654.38;5076193;27;45286;-84
2022/03/09 05:55:27;;;;;;;;;71.33;54.67;;;;;4.06;100.00;101655.25;5076309;27;44773;-83
2022/03/09 05:57:53;;;;;;;;;74.00;53.00;;;;;4.06;100.00;101659.63;5076906;27;45102;-84
2022/03/09 06:00:18;;;;;;;;;72.33;54.67;;;;;4.05;100.00;101671.03;5075811;27;44721;-83
2022/03/09 06:02:44;;;;;;;;;75.50;56.00;;;;;4.05;100.00;101669.28;5084074;27;45513;-82
2022/03/09 06:05:09;;;;;;;;;73.67;53.33;;;;;4.11;100.00;101670.91;5081843;27;44800;-86
2022/03/09 06:07:36;;;;;;;;;72.67;55.33;;;;;4.16;100.00;101660.25;5077777;28;45505;-84
2022/03/09 06:10:02;;;;;;;;;67.67;53.00;;;;;4.20;100.00;101664.53;5076346;27;44829;-83
2022/03/09 06:12:28;;;;;;;;;69.00;53.67;;;;;4.26;100.00;101669.66;5076287;27;44853;-84
2022/03/09 06:14:55;;;;;;;;;66.00;54.00;;;;;4.31;100.00;101659.88;5075972;28;44762;-83
2022/03/09 06:17:20;;;;;;;;;67.67;53.67;;;;;4.37;100.00;101664.97;5075667;27;45544;-85
2022/03/09 06:19:46;;;;;;;;;75.00;54.33;;;;;4.44;100.00;101660.41;5074478;27;45359;-84
2022/03/09 06:22:11;;;;;;;;;69.00;56.00;;;;;4.52;100.00;101671.59;5076204;27;45778;-86
2022/03/09 06:24:36;;;;;;;;;69.33;53.00;;;;;4.59;100.00;101666.13;5075104;27;45499;-84
2022/03/09 06:27:02;;;;;;;;;69.33;52.33;;;;;4.67;100.00;101670.31;5074883;28;46778;-85
2022/03/09 06:29:27;;;;;;;;;71.00;55.33;;;;;4.76;100.00;101664.81;5076694;27;44883;-82
2022/03/09 06:31:53;;;;;;;;;73.00;54.67;;;;;4.86;100.00;101667.13;5079546;27;45062;-84
2022/03/09 06:34:18;;;;;;;;;71.67;52.00;;;;;4.96;100.00;101672.13;5078965;27;45359;-84
2022/03/09 06:36:44;;;;;;;;;74.00;54.67;;;;;4.99;100.00;101675.56;5080712;27;44935;-84
2022/03/09 06:39:16;;;;;;;;;72.33;51.33;;;;;5.03;100.00;101677.19;5081862;27;44847;-84
2022/03/09 06:41:43;;;;;;;;;69.33;52.67;;;;;5.04;100.00;101683.31;5083163;27;44713;-84
2022/03/09 06:44:09;;;;;;;;;69.67;54.00;;;;;4.99;100.00;101680.81;5080954;27;44793;-84
2022/03/09 06:46:34;;;;;;;;;68.33;52.00;;;;;5.01;100.00;101686.03;5083306;27;45340;-84
2022/03/09 06:48:59;;;;;;;;;61.67;46.67;;;;;5.01;100.00;101680.75;5081970;27;44692;-85
2022/03/09 06:51:25;;;;;;;;;67.00;51.50;;;;;5.05;100.00;101680.63;5083703;27;45231;-85
2022/03/09 06:53:50;;;;;;;;;65.00;50.67;;;;;5.09;100.00;101678.78;5094990;27;44783;-83
2022/03/09 06:56:18;;;;;;;;;58.67;46.67;;;;;5.12;100.00;101684.78;5101202;27;45212;-83
2022/03/09 06:58:44;;;;;;;;;67.00;51.67;;;;;5.14;100.00;101685.63;5100135;27;44868;-83
2022/03/09 07:01:09;;;;;;;;;64.00;49.67;;;;;5.20;100.00;101689.00;5102736;27;45252;-83
2022/03/09 07:03:36;;;;;;;;;67.67;50.33;;;;;5.26;100.00;101689.66;5101091;27;44762;-83
2022/03/09 07:06:01;;;;;;;;;67.00;50.00;;;;;5.33;100.00;101688.59;5101168;27;45418;-82
2022/03/09 07:08:28;;;;;;;;;71.67;52.00;;;;;5.42;100.00;101687.47;5101330;27;44758;-82
2022/03/09 07:10:53;;;;;;;;;47.67;39.00;;;;;5.49;100.00;101693.41;5101366;27;45239;-83
2022/03/09 07:13:19;;;;;;;;;64.33;50.00;;;;;5.54;100.00;101689.69;5099862;27;44894;-83
2022/03/09 07:15:44;;;;;;;;;70.00;50.00;;;;;5.70;100.00;101707.69;5101676;27;45110;-82
2022/03/09 07:18:10;;;;;;;;;64.33;51.00;;;;;5.87;100.00;101705.38;5105959;27;44733;-83
2022/03/09 07:20:35;;;;;;;;;63.33;49.67;;;;;6.01;100.00;101705.84;5101697;27;45271;-84
2022/03/09 07:23:01;;;;;;;;;63.33;50.33;;;;;6.10;100.00;101695.00;5100367;27;45267;-82
2022/03/09 07:25:26;;;;;;;;;58.00;48.00;;;;;6.23;100.00;101705.13;5099272;27;45371;-84
2022/03/09 07:27:52;;;;;;;;;61.33;50.67;;;;;6.34;100.00;101711.78;5098790;27;44855;-87
2022/03/09 07:30:17;;;;;;;;;57.67;48.00;;;;;6.45;100.00;101711.41;5099321;27;45428;-84
2022/03/09 07:32:43;;;;;;;;;67.00;49.33;;;;;6.53;100.00;101719.09;5097870;27;45315;-83
2022/03/09 07:35:09;;;;;;;;;61.67;46.00;;;;;6.65;100.00;101723.94;5068367;27;46862;-83
2022/03/09 07:37:35;;;;;;;;;70.00;51.33;;;;;6.80;100.00;101722.53;5059771;28;44816;-82
2022/03/09 07:40:00;;;;;;;;;64.00;49.33;;;;;6.95;100.00;101720.19;5059272;28;45289;-83
2022/03/09 07:42:26;;;;;;;;;64.33;47.33;;;;;7.02;100.00;101715.56;5059141;27;44964;-83
2022/03/09 07:44:51;;;;;;;;;66.00;48.67;;;;;7.17;100.00;101715.00;5064389;27;45246;-84
2022/03/09 07:47:17;;;;;;;;;62.67;49.33;;;;;7.36;100.00;101723.09;5061664;28;45419;-83
2022/03/09 07:49:42;;;;;;;;;59.67;48.33;;;;;7.55;100.00;101723.25;5061367;28;45328;-82
2022/03/09 07:52:08;;;;;;;;;58.67;46.00;;;;;7.68;100.00;101719.19;5061980;28;44824;-82
2022/03/09 07:54:33;;;;;;;;;59.67;48.33;;;;;7.79;100.00;101723.25;5070035;27;45465;-83
2022/03/09 07:56:59;;;;;;;;;54.00;44.00;;;;;7.87;100.00;101721.97;5074427;27;45457;-82
2022/03/09 07:59:28;;;;;;;;;54.67;45.00;;;;;8.00;100.00;101735.59;5063065;27;44835;-81
2022/03/09 08:01:54;;;;;;;;;55.33;44.67;;;;;8.10;100.00;101729.00;5062521;27;45488;-84
2022/03/09 08:04:21;;;;;;;;;57.00;45.67;;;;;8.22;100.00;101731.16;5058465;28;45432;-84
2022/03/09 08:06:51;;;;;;;;;55.33;43.33;;;;;8.27;100.00;101743.31;5057612;27;45000;-85
2022/03/09 08:09:16;;;;;;;;;53.33;44.00;;;;;8.32;100.00;101742.22;5074446;27;44863;-82
2022/03/09 08:11:43;;;;;;;;;52.67;44.33;;;;;8.40;100.00;101744.59;5072903;27;44896;-83
2022/03/09 08:14:09;;;;;;;;;55.33;46.00;;;;;8.47;100.00;101749.56;5060065;28;46276;-82
2022/03/09 08:16:34;;;;;;;;;50.33;41.67;;;;;8.57;100.00;101749.19;5068133;28;44830;-84
2022/03/09 08:19:00;;;;;;;;;56.33;42.33;;;;;8.63;100.00;101747.13;5071404;27;45304;-84
2022/03/09 08:21:25;;;;;;;;;56.67;45.00;;;;;8.73;100.00;101755.53;5068045;28;45490;-84
2022/03/09 08:23:50;;;;;;;;;52.67;42.00;;;;;8.86;100.00;101747.94;5067019;27;45485;-84
2022/03/09 08:26:16;;;;;;;;;47.33;38.00;;;;;8.95;100.00;101752.84;5070216;27;45338;-84
2022/03/09 08:28:41;;;;;;;;;50.00;40.67;;;;;8.98;100.00;101753.53;5061265;28;45323;-83
2022/03/09 08:31:07;;;;;;;;;43.67;38.00;;;;;9.06;100.00;101753.22;5069829;27;45252;-84
2022/03/09 08:33:32;;;;;;;;;53.33;39.00;;;;;9.14;100.00;101752.88;5056944;28;45519;-85
2022/03/09 08:35:58;;;;;;;;;50.00;40.33;;;;;9.21;100.00;101744.56;5072218;28;44770;-86
2022/03/09 08:38:23;;;;;;;;;45.33;39.00;;;;;9.26;100.00;101752.31;5061328;27;45218;-84
2022/03/09 08:40:49;;;;;;;;;45.67;38.00;;;;;9.22;100.00;101756.03;5063428;27;44846;-82
2022/03/09 08:43:15;;;;;;;;;48.67;40.67;;;;;9.21;100.00;101749.88;5079101;27;45136;-86
2022/03/09 08:45:40;;;;;;;;;61.67;49.00;;;;;9.30;100.00;101753.91;5062341;28;45187;-85
2022/03/09 08:48:06;;;;;;;;;49.00;37.00;;;;;9.33;100.00;101753.78;5062751;27;45324;-85
2022/03/09 08:50:31;;;;;;;;;42.33;37.33;;;;;9.44;100.00;101753.28;5073874;28;44872;-83
2022/03/09 08:52:57;;;;;;;;;42.67;36.33;;;;;9.57;100.00;101754.41;5057998;27;44999;-84
2022/03/09 08:55:23;;;;;;;;;40.67;32.33;;;;;9.70;100.00;101755.56;5056641;28;44817;-84
2022/03/09 08:57:48;;;;;;;;;45.33;36.67;;;;;9.75;100.00;101755.34;5057017;28;45852;-84
2022/03/09 09:00:14;;;;;;;;;40.67;34.67;;;;;9.79;100.00;101748.97;5056782;28;45439;-83
2022/03/09 09:02:39;;;;;;;;;41.00;34.33;;;;;9.85;100.00;101748.69;5056452;28;45293;-84
2022/03/09 09:05:05;;;;;;;;;42.00;36.33;;;;;9.91;100.00;101751.06;5057127;27;45300;-83
2022/03/09 09:07:30;;;;;;;;;46.67;35.67;;;;;10.00;100.00;101747.94;5065041;28;44839;-82
2022/03/09 09:09:57;;;;;;;;;42.67;37.00;;;;;10.05;100.00;101751.22;5064283;27;45355;-84
2022/03/09 09:12:23;;;;;;;;;43.67;35.67;;;;;10.11;100.00;101744.78;5074153;28;45232;-84
2022/03/09 09:14:48;;;;;;;;;32.67;31.33;;;;;10.13;100.00;101750.00;5073989;28;45221;-83
2022/03/09 09:17:13;;;;;;;;;42.00;33.33;;;;;10.17;100.00;101746.28;5072600;27;45245;-84
2022/03/09 09:19:39;;;;;;;;;37.00;31.00;;;;;10.16;100.00;101748.06;5077402;27;45170;-84
2022/03/09 09:22:04;;;;;;;;;37.67;32.00;;;;;10.18;100.00;101751.50;5064443;27;45418;-84
2022/03/09 09:24:30;;;;;;;;;36.00;33.67;;;;;10.17;100.00;101756.91;5058913;28;44766;-83
2022/03/09 09:26:55;;;;;;;;;29.67;27.33;;;;;10.19;100.00;101747.03;5071577;27;45419;-84
2022/03/09 09:29:21;;;;;;;;;26.00;23.75;;;;;10.25;100.00;101746.78;5057412;28;45086;-83
2022/03/09 09:31:48;;;;;;;;;33.33;29.00;;;;;10.24;100.00;101737.09;5069276;28;45372;-83
2022/03/09 09:34:14;;;;;;;;;31.00;27.25;;;;;10.37;100.00;101734.69;5061883;28;44786;-84
2022/03/09 09:36:42;;;;;;;;;28.00;27.00;;;;;10.48;100.00;101730.56;5063918;28;45484;-84
2022/03/09 09:39:08;;;;;;;;;29.25;25.75;;;;;10.57;100.00;101731.03;5073953;27;45494;-84
2022/03/09 09:41:34;;;;;;;;;28.25;25.50;;;;;10.62;100.00;101731.66;5056997;28;45541;-83
2022/03/09 09:44:00;;;;;;;;;26.33;26.33;;;;;10.75;100.00;101730.94;5055791;28;45331;-83
2022/03/09 09:46:26;;;;;;;;;24.50;22.75;;;;;10.78;100.00;101721.94;5057499;27;45627;-82
2022/03/09 09:48:51;;;;;;;;;26.50;26.50;;;;;10.82;100.00;101723.50;5059195;28;44923;-83
2022/03/09 09:51:17;;;;;;;;;30.25;26.00;;;;;10.96;100.00;101712.16;5080216;27;45053;-84
2022/03/09 09:53:44;;;;;;;;;24.50;19.50;;;;;11.08;100.00;101716.84;5064989;27;44911;-83
2022/03/09 09:56:13;;;;;;;;;20.50;19.00;;;;;11.14;100.00;101705.84;5077098;28;44827;-82
2022/03/09 09:58:44;;;;;;;;;24.50;22.00;;;;;11.20;100.00;101712.66;5083069;27;45157;-83
2022/03/09 10:01:11;;;;;;;;;25.25;22.75;;;;;11.44;100.00;101715.78;5068355;28;45208;-84
2022/03/09 10:03:37;;;;;;;;;25.25;23.00;;;;;11.60;100.00;101719.28;5069936;27;44717;-84
2022/03/09 10:06:02;;;;;;;;;24.00;19.50;;;;;11.69;100.00;101716.13;5059803;28;45237;-83
2022/03/09 10:08:28;;;;;;;;;23.75;22.75;;;;;11.71;100.00;101708.06;5060665;28;44947;-83
2022/03/09 10:11:02;;;;;;;;;24.00;22.25;;;;;11.71;100.00;101710.75;5078902;27;44929;-83
2022/03/09 10:13:33;;;;;;;;;17.75;14.50;;;;;11.83;100.00;101715.38;5072380;27;45508;-84
2022/03/09 10:16:20;;;;;;;;;24.50;20.50;;;;;12.02;100.00;101713.41;5069713;27;45467;-83
2022/03/09 10:18:56;;;;;;;;;17.00;17.00;;;;;12.08;100.00;101726.34;5075969;27;44864;-82
2022/03/09 10:21:28;;;;;;;;;19.25;16.75;;;;;12.08;100.00;101704.19;5079228;27;45352;-84
2022/03/09 10:24:03;;;;;;;;;16.25;15.50;;;;;12.08;100.00;101707.72;5069154;27;44919;-83
2022/03/09 10:26:45;;;;;;;;;14.25;13.50;;;;;12.17;100.00;101701.00;5079265;28;45338;-83
2022/03/09 10:29:12;;;;;;;;;15.75;15.75;;;;;12.26;100.00;101708.44;5075447;27;44734;-83
2022/03/09 10:31:37;;;;;;;;;14.00;12.75;;;;;12.39;100.00;101703.28;5059348;28;45499;-84
2022/03/09 10:34:24;;;;;;;;;14.00;13.50;;;;;12.48;100.00;101702.72;5070797;28;45316;-84
2022/03/09 10:37:01;;;;;;;;;10.75;10.75;;;;;12.53;100.00;101695.31;5076022;28;45481;-84
2022/03/09 10:39:33;;;;;;;;;14.25;13.75;;;;;12.58;100.00;101698.56;5066486;28;45208;-83
2022/03/09 10:41:58;;;;;;;;;9.75;9.75;;;;;12.54;100.00;101697.03;5068950;27;46070;-83
2022/03/09 10:44:44;;;;;;;;;12.75;12.75;;;;;12.64;100.00;101686.66;5075742;27;45358;-84
2022/03/09 10:47:10;;;;;;;;;19.00;15.50;;;;;12.68;100.00;101688.19;5067503;27;45591;-82
2022/03/09 10:49:35;;;;;;;;;11.75;11.50;;;;;12.68;100.00;101682.88;5066344;28;45309;-84
2022/03/09 10:52:01;;;;;;;;;16.50;14.50;;;;;12.82;100.00;101687.38;5067548;27;45969;-85
2022/03/09 10:54:28;;;;;;;;;13.00;9.75;;;;;12.89;100.00;101690.50;5062172;28;45376;-85
2022/03/09 10:57:10;;;;;;;;;15.25;14.50;;;;;12.98;100.00;101690.78;5076741;28;45256;-85
2022/03/09 10:59:47;;;;;;;;;17.25;12.75;;;;;13.01;100.00;101687.09;5076485;27;45512;-84
2022/03/09 11:02:14;;;;;;;;;15.75;14.50;;;;;13.04;100.00;101689.56;5078860;28;45324;-84
2022/03/09 11:04:40;;;;;;;;;11.60;11.20;;;;;13.12;100.00;101689.94;5063267;27;45256;-84